DLH74 ESGG-KLAX
Flight info
| Callsign | DLH74 |
|---|---|
| Flight time | N/A |
| Altitude | 34000 |
| Route | DETNA DCT NERDO DCT PEVEB DCT ORVIK DCT SUM DCT AKIVO DCT ATSIX/M083F340 DCT 62N020W 62N030W 61N040W 59N050W/M083F360 DCT AVUTI/N0490F360 DCT 58N070W 57N080W 55N085W/N0484F380 53N090W 50N098W DCT MOT DCT RECAP DCT CZI DCT KU75S DCT OCS J107 MLF DCT WINEN/N0468F390 Q73 EEVUN/N0470F380 Q73 HAKMN ANJLL4 |
| Aircraft | A346/H-SDE2E3FGHIJ3J4J5M1RWXY/LB1D1 |
Departure
| Time | 2026-05-06 17:52 |
|---|---|
| Airport | Göteborg Landvetter Airport (ESGG) |
Arrival
| Time | N/A |
|---|---|
| Airport | Los Angeles International Airport (KLAX) |
| Time | Latitude | Longitude | Altitude | Speed | Heading |
|---|---|---|---|---|---|
| 2026-05-06 17:19 | 57.66637 | 12.29146 | 492 ft | 0 kts | 116° |
| 2026-05-06 17:42 | 57.66646 | 12.29111 | 515 ft | 0 kts | 116° |
| 2026-05-06 17:43 | 57.66657 | 12.29067 | 515 ft | 0 kts | 116° |
| 2026-05-06 17:43 | 57.66669 | 12.29021 | 515 ft | 0 kts | 116° |
| 2026-05-06 17:43 | 57.66670 | 12.29017 | 515 ft | 0 kts | 116° |
| 2026-05-06 17:48 | 57.66667 | 12.29029 | 515 ft | 4 kts | 121° |
| 2026-05-06 17:48 | 57.66638 | 12.29062 | 515 ft | 7 kts | 178° |
| 2026-05-06 17:48 | 57.66606 | 12.28998 | 514 ft | 10 kts | 269° |
| 2026-05-06 17:48 | 57.66640 | 12.28853 | 514 ft | 13 kts | 298° |
| 2026-05-06 17:49 | 57.66703 | 12.28739 | 514 ft | 13 kts | 10° |
| 2026-05-06 17:49 | 57.66798 | 12.28793 | 515 ft | 16 kts | 24° |
| 2026-05-06 17:49 | 57.66912 | 12.28889 | 517 ft | 20 kts | 25° |
| 2026-05-06 17:49 | 57.67059 | 12.29020 | 518 ft | 25 kts | 25° |
| 2026-05-06 17:50 | 57.67230 | 12.29175 | 520 ft | 27 kts | 26° |
| 2026-05-06 17:50 | 57.67336 | 12.29273 | 521 ft | 21 kts | 26° |
| 2026-05-06 17:50 | 57.67424 | 12.29316 | 522 ft | 10 kts | 322° |
| 2026-05-06 17:50 | 57.67440 | 12.29286 | 522 ft | 7 kts | 315° |
| 2026-05-06 17:51 | 57.67472 | 12.29134 | 521 ft | 19 kts | 271° |
| 2026-05-06 17:51 | 57.67284 | 12.28893 | 520 ft | 56 kts | 206° |
| 2026-05-06 17:51 | 57.66745 | 12.28403 | 514 ft | 116 kts | 206° |
| 2026-05-06 17:51 | 57.65843 | 12.27584 | 505 ft | 170 kts | 206° |
| 2026-05-06 17:52 | 57.64658 | 12.26504 | 670 ft | 198 kts | 207° |
| 2026-05-06 17:52 | 57.63498 | 12.25410 | 1566 ft | 179 kts | 207° |
| 2026-05-06 17:52 | 57.62377 | 12.24379 | 2226 ft | 181 kts | 206° |
| 2026-05-06 17:52 | 57.61234 | 12.23342 | 2836 ft | 185 kts | 206° |
| 2026-05-06 17:53 | 57.60050 | 12.22282 | 3437 ft | 189 kts | 206° |
| 2026-05-06 17:53 | 57.58856 | 12.21229 | 3969 ft | 187 kts | 206° |
| 2026-05-06 17:53 | 57.57673 | 12.20200 | 4457 ft | 185 kts | 205° |
| 2026-05-06 17:53 | 57.56496 | 12.19190 | 4888 ft | 186 kts | 205° |
| 2026-05-06 17:54 | 57.55402 | 12.17859 | 5184 ft | 193 kts | 230° |
| 2026-05-06 17:54 | 57.54764 | 12.15653 | 5523 ft | 197 kts | 259° |
| 2026-05-06 17:54 | 57.54709 | 12.13097 | 5880 ft | 203 kts | 272° |
| 2026-05-06 17:54 | 57.54769 | 12.10262 | 6046 ft | 221 kts | 272° |
| 2026-05-06 17:55 | 57.54851 | 12.07406 | 6123 ft | 242 kts | 274° |
| 2026-05-06 17:55 | 57.54952 | 12.04228 | 6596 ft | 247 kts | 269° |
| 2026-05-06 17:55 | 57.54892 | 12.02093 | 6938 ft | 249 kts | 264° |
| 2026-05-06 17:55 | 57.54666 | 11.98855 | 7450 ft | 253 kts | 261° |
| 2026-05-06 17:56 | 57.54254 | 11.94527 | 8126 ft | 258 kts | 261° |
| 2026-05-06 17:56 | 57.54093 | 11.92266 | 8451 ft | 262 kts | 266° |
| 2026-05-06 17:56 | 57.54079 | 11.88859 | 8859 ft | 269 kts | 275° |
| 2026-05-06 17:56 | 57.54263 | 11.85332 | 9279 ft | 278 kts | 276° |
| 2026-05-06 17:57 | 57.54488 | 11.81695 | 9686 ft | 286 kts | 276° |
| 2026-05-06 17:57 | 57.54721 | 11.77956 | 10074 ft | 294 kts | 276° |
| 2026-05-06 17:57 | 57.54957 | 11.74102 | 10449 ft | 302 kts | 276° |
| 2026-05-06 17:57 | 57.55194 | 11.70145 | 10832 ft | 311 kts | 276° |
| 2026-05-06 17:58 | 57.55435 | 11.66061 | 11217 ft | 320 kts | 276° |
| 2026-05-06 17:58 | 57.55683 | 11.61822 | 11606 ft | 329 kts | 276° |
| 2026-05-06 17:58 | 57.55933 | 11.57518 | 11982 ft | 337 kts | 276° |
| 2026-05-06 17:58 | 57.56191 | 11.53046 | 12377 ft | 346 kts | 276° |
| 2026-05-06 17:59 | 57.56450 | 11.48521 | 12749 ft | 354 kts | 276° |
| 2026-05-06 17:59 | 57.56712 | 11.43900 | 13142 ft | 362 kts | 276° |
| 2026-05-06 17:59 | 57.56980 | 11.39159 | 13524 ft | 370 kts | 276° |
| 2026-05-06 17:59 | 57.57251 | 11.34324 | 13906 ft | 378 kts | 276° |
| 2026-05-06 18:00 | 57.57526 | 11.29394 | 14293 ft | 385 kts | 276° |
| 2026-05-06 18:00 | 57.57803 | 11.24371 | 14667 ft | 391 kts | 276° |
| 2026-05-06 18:00 | 57.58076 | 11.19372 | 15050 ft | 394 kts | 276° |
| 2026-05-06 18:00 | 57.58382 | 11.14276 | 15417 ft | 396 kts | 280° |
| 2026-05-06 18:01 | 57.59245 | 11.09396 | 15777 ft | 398 kts | 294° |
| 2026-05-06 18:01 | 57.60459 | 11.04729 | 16155 ft | 400 kts | 296° |
| 2026-05-06 18:01 | 57.61717 | 11.00078 | 16535 ft | 403 kts | 296° |
| 2026-05-06 18:01 | 57.62969 | 10.95363 | 16913 ft | 405 kts | 296° |
| 2026-05-06 18:02 | 57.64206 | 10.90594 | 17287 ft | 407 kts | 295° |
| 2026-05-06 18:02 | 57.65426 | 10.85802 | 17674 ft | 409 kts | 295° |
| 2026-05-06 18:02 | 57.66642 | 10.80962 | 18051 ft | 412 kts | 295° |
| 2026-05-06 18:02 | 57.67848 | 10.76121 | 18427 ft | 414 kts | 295° |
| 2026-05-06 18:03 | 57.69062 | 10.71216 | 18804 ft | 416 kts | 295° |
| 2026-05-06 18:03 | 57.70278 | 10.66280 | 19184 ft | 419 kts | 295° |
| 2026-05-06 18:03 | 57.71500 | 10.61301 | 19564 ft | 421 kts | 294° |
| 2026-05-06 18:03 | 57.72726 | 10.56289 | 19941 ft | 423 kts | 294° |
| 2026-05-06 18:04 | 57.73958 | 10.51240 | 20326 ft | 426 kts | 294° |
| 2026-05-06 18:04 | 57.75190 | 10.46176 | 20697 ft | 428 kts | 294° |
| 2026-05-06 18:04 | 57.76430 | 10.41071 | 21084 ft | 431 kts | 294° |
| 2026-05-06 18:04 | 57.77672 | 10.35938 | 21458 ft | 433 kts | 294° |
| 2026-05-06 18:05 | 57.78904 | 10.30839 | 21824 ft | 436 kts | 294° |
| 2026-05-06 18:05 | 57.80155 | 10.25649 | 22205 ft | 438 kts | 294° |
| 2026-05-06 18:05 | 57.81414 | 10.20412 | 22587 ft | 440 kts | 294° |
| 2026-05-06 18:05 | 57.82676 | 10.15149 | 22969 ft | 442 kts | 294° |
| 2026-05-06 18:06 | 57.83943 | 10.09852 | 23346 ft | 444 kts | 294° |
| 2026-05-06 18:06 | 57.85207 | 10.04554 | 23733 ft | 445 kts | 294° |
| 2026-05-06 18:06 | 57.86476 | 9.99221 | 24102 ft | 446 kts | 294° |
| 2026-05-06 18:06 | 57.87744 | 9.93882 | 24477 ft | 448 kts | 294° |
| 2026-05-06 18:07 | 57.88997 | 9.88592 | 24847 ft | 448 kts | 294° |
| 2026-05-06 18:07 | 57.90270 | 9.83203 | 25231 ft | 449 kts | 294° |
| 2026-05-06 18:07 | 57.91575 | 9.77669 | 25609 ft | 450 kts | 294° |
| 2026-05-06 18:07 | 57.92847 | 9.72259 | 25995 ft | 450 kts | 294° |
| 2026-05-06 18:08 | 57.94116 | 9.66846 | 26371 ft | 450 kts | 294° |
| 2026-05-06 18:08 | 57.95365 | 9.61507 | 26745 ft | 450 kts | 294° |
| 2026-05-06 18:08 | 57.96628 | 9.56091 | 27125 ft | 450 kts | 294° |
| 2026-05-06 18:08 | 57.97886 | 9.50687 | 27501 ft | 450 kts | 294° |
| 2026-05-06 18:09 | 57.99145 | 9.45265 | 27879 ft | 449 kts | 293° |
| 2026-05-06 18:09 | 58.00396 | 9.39861 | 28254 ft | 448 kts | 293° |
| 2026-05-06 18:09 | 58.01640 | 9.34478 | 28632 ft | 447 kts | 293° |
| 2026-05-06 18:09 | 58.02882 | 9.29083 | 29011 ft | 446 kts | 293° |
| 2026-05-06 18:10 | 58.04118 | 9.23705 | 29383 ft | 445 kts | 293° |
| 2026-05-06 18:10 | 58.05347 | 9.18347 | 29765 ft | 443 kts | 293° |
| 2026-05-06 18:10 | 58.06569 | 9.13003 | 30136 ft | 441 kts | 293° |
| 2026-05-06 18:10 | 58.07766 | 9.07752 | 30502 ft | 439 kts | 293° |
| 2026-05-06 18:11 | 58.08972 | 9.02453 | 30875 ft | 436 kts | 293° |
| 2026-05-06 18:11 | 58.10169 | 8.97179 | 31260 ft | 434 kts | 293° |
| 2026-05-06 18:11 | 58.11357 | 8.91933 | 31632 ft | 431 kts | 293° |
| 2026-05-06 18:11 | 58.12530 | 8.86737 | 32008 ft | 427 kts | 293° |
| 2026-05-06 18:12 | 58.13693 | 8.81573 | 32383 ft | 423 kts | 293° |
| 2026-05-06 18:12 | 58.14835 | 8.76495 | 32666 ft | 423 kts | 293° |
| 2026-05-06 18:12 | 58.15988 | 8.71352 | 32773 ft | 426 kts | 293° |
| 2026-05-06 18:12 | 58.17181 | 8.66014 | 32914 ft | 429 kts | 293° |
| 2026-05-06 18:13 | 58.18349 | 8.60777 | 33029 ft | 431 kts | 292° |
| 2026-05-06 18:13 | 58.19520 | 8.55515 | 33202 ft | 433 kts | 292° |
| 2026-05-06 18:13 | 58.21160 | 8.48126 | 33434 ft | 435 kts | 292° |
| 2026-05-06 18:13 | 58.22338 | 8.42799 | 33598 ft | 437 kts | 292° |
| 2026-05-06 18:14 | 58.23532 | 8.37383 | 33748 ft | 438 kts | 292° |
| 2026-05-06 18:14 | 58.24709 | 8.32034 | 33918 ft | 440 kts | 292° |
| 2026-05-06 18:14 | 58.27071 | 8.21258 | 33997 ft | 448 kts | 292° |
| 2026-05-06 18:15 | 58.29488 | 8.10173 | 34001 ft | 458 kts | 292° |
| 2026-05-06 18:15 | 58.31953 | 7.98806 | 34002 ft | 468 kts | 292° |
| 2026-05-06 18:16 | 58.34440 | 7.87275 | 34002 ft | 475 kts | 292° |
| 2026-05-06 18:16 | 58.36959 | 7.75530 | 34000 ft | 477 kts | 292° |
| 2026-05-06 18:17 | 58.39447 | 7.63863 | 34000 ft | 477 kts | 292° |
| 2026-05-06 18:17 | 58.41945 | 7.52080 | 34002 ft | 477 kts | 292° |
| 2026-05-06 18:18 | 58.44429 | 7.40297 | 34001 ft | 477 kts | 292° |
| 2026-05-06 18:18 | 58.46904 | 7.28493 | 33999 ft | 478 kts | 291° |
| 2026-05-06 18:19 | 58.49370 | 7.16656 | 34001 ft | 477 kts | 291° |
| 2026-05-06 18:19 | 58.51803 | 7.04915 | 34001 ft | 478 kts | 291° |
| 2026-05-06 18:20 | 58.54248 | 6.93044 | 34002 ft | 478 kts | 291° |
| 2026-05-06 18:20 | 58.56680 | 6.81163 | 34000 ft | 478 kts | 291° |
| 2026-05-06 18:21 | 58.59093 | 6.69309 | 34003 ft | 478 kts | 291° |
| 2026-05-06 18:21 | 58.61505 | 6.57389 | 33998 ft | 479 kts | 291° |
| 2026-05-06 18:22 | 58.63909 | 6.45440 | 34000 ft | 479 kts | 291° |
| 2026-05-06 18:22 | 58.66292 | 6.33521 | 34002 ft | 479 kts | 291° |
| 2026-05-06 18:23 | 58.68675 | 6.21531 | 34001 ft | 479 kts | 291° |
| 2026-05-06 18:23 | 58.71025 | 6.09638 | 34001 ft | 477 kts | 290° |
| 2026-05-06 18:24 | 58.73384 | 5.97622 | 34004 ft | 482 kts | 290° |
| 2026-05-06 18:24 | 58.74577 | 5.91551 | 35667 ft | 480 kts | 288° |
| 2026-05-06 18:24 | 58.75751 | 5.85645 | 35881 ft | 464 kts | 288° |
| 2026-05-06 18:25 | 58.76902 | 5.79854 | 36048 ft | 461 kts | 288° |
| 2026-05-06 18:25 | 58.78048 | 5.74075 | 36207 ft | 459 kts | 288° |
| 2026-05-06 18:25 | 58.80336 | 5.62492 | 35359 ft | 464 kts | 288° |
| 2026-05-06 18:26 | 58.81489 | 5.56617 | 34162 ft | 467 kts | 288° |
| 2026-05-06 18:26 | 58.82605 | 5.50942 | 34576 ft | 431 kts | 288° |
| 2026-05-06 18:26 | 58.83288 | 5.47363 | 35475 ft | 406 kts | 286° |
| 2026-05-06 18:26 | 58.84086 | 5.42935 | 37236 ft | 356 kts | 287° |